createdAt,value
2018-03-03T00:07:20.769Z,137.70
2018-03-03T00:17:22.294Z,153.73
2018-03-03T00:27:23.800Z,171.00
2018-03-03T00:37:25.342Z,163.47
2018-03-03T00:47:27.632Z,165.07
2018-03-03T00:57:29.266Z,164.20
2018-03-03T01:07:30.707Z,172.67
2018-03-03T01:17:32.395Z,174.03
2018-03-03T01:27:33.866Z,149.63
2018-03-03T01:37:36.087Z,176.30
2018-03-03T01:47:37.559Z,195.47
2018-03-03T01:57:39.032Z,182.73
2018-03-03T02:07:40.590Z,197.43
2018-03-03T02:17:42.058Z,190.93
2018-03-03T02:27:43.555Z,200.07
2018-03-03T02:37:45.077Z,204.47
2018-03-03T02:47:46.572Z,194.37
2018-03-03T02:57:48.924Z,191.27
2018-03-03T03:07:50.462Z,189.33
2018-03-03T03:17:51.915Z,197.00
2018-03-03T03:27:53.427Z,205.90
2018-03-03T03:37:54.963Z,189.80
2018-03-03T03:47:56.558Z,185.27
2018-03-03T03:57:58.033Z,191.90
2018-03-03T04:07:59.500Z,179.13
2018-03-03T04:18:00.977Z,189.40
2018-03-03T04:28:03.226Z,192.53
2018-03-03T04:38:04.806Z,173.17
2018-03-03T04:48:06.324Z,195.87
2018-03-03T04:58:07.938Z,199.30
2018-03-03T05:29:13.355Z,173.17
2018-03-03T06:00:35.328Z,191.30
2018-03-03T06:10:37.767Z,178.50
2018-03-03T06:20:39.452Z,178.50
2018-03-03T06:30:41.981Z,158.67
2018-03-03T06:40:43.566Z,157.73
2018-03-03T06:50:45.855Z,186.77
2018-03-03T07:00:47.385Z,181.60
2018-03-03T07:10:49.651Z,180.87
2018-03-03T07:20:51.211Z,158.63
2018-03-03T07:30:52.780Z,172.60
2018-03-03T07:40:54.230Z,153.40
2018-03-03T07:50:56.015Z,180.10
2018-03-03T08:00:57.571Z,163.67
2018-03-03T08:10:59.084Z,170.40
2018-03-03T08:21:00.673Z,173.33
2018-03-03T08:31:02.606Z,164.47
2018-03-03T08:41:05.031Z,174.40
2018-03-03T08:51:07.414Z,144.50
2018-03-03T09:01:08.935Z,177.63
2018-03-03T09:11:10.522Z,147.63
2018-03-03T09:21:12.008Z,174.03
2018-03-03T09:31:13.567Z,181.50
2018-03-03T09:41:15.126Z,167.93
2018-03-03T09:51:16.841Z,180.67
2018-03-03T10:01:19.118Z,167.90
2018-03-03T10:11:20.724Z,158.93
2018-03-03T10:21:22.163Z,166.83
2018-03-03T10:31:23.717Z,178.07
2018-03-03T10:41:25.321Z,177.27
2018-03-03T10:51:26.812Z,176.20
2018-03-03T11:01:28.436Z,163.23
2018-03-03T11:11:30.127Z,174.60
2018-03-03T11:21:31.642Z,165.43
2018-03-03T11:31:33.218Z,171.53
2018-03-03T11:41:34.741Z,160.87
2018-03-03T11:51:36.336Z,165.37
2018-03-03T12:01:37.903Z,162.40
2018-03-03T12:11:39.634Z,167.00
2018-03-03T12:21:41.148Z,145.63
2018-03-03T12:31:42.708Z,162.13
2018-03-03T12:41:44.219Z,156.30
2018-03-03T12:51:45.773Z,161.67
2018-03-03T13:01:48.093Z,170.00
2018-03-03T13:11:50.474Z,153.60
2018-03-03T13:21:52.057Z,162.17
2018-03-03T13:31:53.641Z,143.90
2018-03-03T13:41:55.112Z,155.13
2018-03-03T13:51:57.402Z,167.23
2018-03-03T14:02:06.054Z,160.63
2018-03-03T14:12:07.635Z,148.70
2018-03-03T14:22:09.246Z,172.50
2018-03-03T14:32:10.858Z,167.90
2018-03-03T14:42:12.424Z,151.27
2018-03-03T14:52:13.958Z,157.57
2018-03-03T15:02:15.574Z,151.43
2018-03-03T15:12:17.245Z,156.07
2018-03-03T15:22:18.890Z,159.00
2018-03-03T15:32:21.193Z,167.37
2018-03-03T15:42:22.735Z,143.40
2018-03-03T15:52:24.183Z,146.20
2018-03-03T16:02:25.758Z,152.00
2018-03-03T16:12:27.237Z,128.17
2018-03-03T16:22:28.980Z,156.23
2018-03-03T16:32:30.611Z,152.30
2018-03-03T16:42:32.133Z,162.57
2018-03-03T16:52:33.676Z,164.40
2018-03-03T17:02:35.215Z,168.90
2018-03-03T17:12:37.482Z,171.40
2018-03-03T17:22:39.044Z,177.27
2018-03-03T17:32:40.731Z,169.40
2018-03-03T17:42:43.016Z,141.17
2018-03-03T17:52:44.577Z,153.90
2018-03-03T18:02:46.046Z,156.17
2018-03-03T18:12:48.696Z,142.67
2018-03-03T18:22:50.285Z,177.87
2018-03-03T18:32:51.913Z,176.57
2018-03-03T18:42:53.473Z,158.50
2018-03-03T18:52:55.953Z,150.33
2018-03-03T19:02:57.609Z,156.73
2018-03-03T19:12:59.399Z,176.27
2018-03-03T19:23:01.773Z,169.67
2018-03-03T19:33:03.620Z,179.70
2018-03-03T19:43:05.184Z,170.50
2018-03-03T19:53:06.784Z,157.00
2018-03-03T20:03:08.297Z,158.80
2018-03-03T20:13:09.918Z,187.30
2018-03-03T20:23:12.271Z,192.27
2018-03-03T20:33:13.959Z,167.07
2018-03-03T20:43:16.372Z,181.93
2018-03-03T20:53:18.145Z,184.53
2018-03-03T21:03:19.968Z,186.93
2018-03-03T21:13:21.581Z,196.53
2018-03-03T21:23:23.119Z,188.23
2018-03-03T21:33:24.701Z,194.00
2018-03-03T21:43:26.279Z,196.43
2018-03-03T21:53:28.588Z,224.80
2018-03-03T22:03:30.146Z,213.30
2018-03-03T22:13:31.753Z,200.30
2018-03-03T22:23:33.429Z,197.50
2018-03-03T22:33:35.697Z,206.13
2018-03-03T22:43:37.240Z,199.17
2018-03-03T22:53:38.804Z,205.40
2018-03-03T23:03:40.361Z,208.83
2018-03-03T23:13:41.979Z,213.17
2018-03-03T23:23:43.514Z,198.60
2018-03-03T23:33:45.035Z,198.77
2018-03-03T23:43:47.364Z,209.97
2018-03-03T23:53:48.918Z,215.40
